createdAt,value
2023-05-01T00:01:08.582Z,4.68
2023-05-01T00:07:43.330Z,4.67
2023-05-01T00:10:13.871Z,4.72
2023-05-01T00:16:49.456Z,4.61
2023-05-01T00:19:19.435Z,4.62
2023-05-01T00:21:49.154Z,4.55
2023-05-01T00:24:18.564Z,4.62
2023-05-01T00:26:49.905Z,4.66
2023-05-01T00:33:31.812Z,4.50
2023-05-01T00:36:02.049Z,4.58
2023-05-01T00:42:50.926Z,4.21
2023-05-01T00:45:21.050Z,4.15
2023-05-01T00:52:10.336Z,4.13
2023-05-01T00:59:05.978Z,3.94
2023-05-01T01:01:35.264Z,3.94
2023-05-01T01:08:17.398Z,4.00
2023-05-01T01:10:53.357Z,4.20
2023-05-01T01:17:47.509Z,3.88
2023-05-01T01:24:38.591Z,3.80
2023-05-01T01:27:58.476Z,3.73
2023-05-01T01:30:42.519Z,3.80
2023-05-01T01:33:33.029Z,3.99
2023-05-01T01:36:07.655Z,3.89
2023-05-01T01:42:58.263Z,3.29
2023-05-01T01:45:32.379Z,3.20
2023-05-01T01:48:02.029Z,3.31
2023-05-01T01:54:54.148Z,3.45
2023-05-01T01:57:23.957Z,3.59
2023-05-01T02:04:12.562Z,3.60
2023-05-01T02:06:42.891Z,3.56
2023-05-01T02:13:33.167Z,3.81
2023-05-01T02:20:11.001Z,3.52
2023-05-01T02:22:42.454Z,3.39
2023-05-01T02:29:31.240Z,3.45
2023-05-01T02:32:00.202Z,3.35
2023-05-01T02:38:51.452Z,3.33
2023-05-01T02:41:24.439Z,3.17
2023-05-01T02:44:00.395Z,3.32
2023-05-01T02:50:55.852Z,3.26
2023-05-01T02:53:25.435Z,3.03
2023-05-01T03:00:14.326Z,3.06
2023-05-01T03:02:43.658Z,2.72
2023-05-01T03:09:39.458Z,2.91
2023-05-01T03:12:08.864Z,2.85
2023-05-01T03:14:37.952Z,2.89
2023-05-01T03:21:19.868Z,2.72
2023-05-01T03:23:49.473Z,2.84
2023-05-01T03:30:26.181Z,2.79
2023-05-01T03:32:56.106Z,2.75
2023-05-01T03:35:25.546Z,2.79
2023-05-01T03:37:54.797Z,2.74
2023-05-01T03:40:23.991Z,2.51
2023-05-01T03:42:53.176Z,2.50
2023-05-01T03:45:22.488Z,2.46
2023-05-01T03:47:53.457Z,2.31
2023-05-01T03:50:22.641Z,2.45
2023-05-01T03:57:11.601Z,2.38
2023-05-01T03:59:40.794Z,2.38
2023-05-01T04:06:30.934Z,2.75
2023-05-01T04:09:01.129Z,2.69
2023-05-01T04:15:49.062Z,3.11
2023-05-01T04:22:45.244Z,3.25
2023-05-01T04:25:14.354Z,3.52
2023-05-01T04:31:55.861Z,4.00
2023-05-01T04:34:26.075Z,3.90
2023-05-01T04:41:15.030Z,4.46
2023-05-01T04:43:44.355Z,4.78
2023-05-01T04:46:13.399Z,5.39
2023-05-01T04:48:42.941Z,5.86
2023-05-01T04:51:12.043Z,5.99
2023-05-01T04:58:08.082Z,6.50
2023-05-01T05:00:37.670Z,7.48
2023-05-01T05:07:19.002Z,8.68
2023-05-01T05:09:47.991Z,9.05
2023-05-01T05:16:31.170Z,11.03
2023-05-01T05:23:19.932Z,11.72
2023-05-01T05:25:49.115Z,11.74
2023-05-01T05:32:39.458Z,12.97
2023-05-01T05:35:10.080Z,12.86
2023-05-01T05:37:39.172Z,13.35
2023-05-01T05:40:09.688Z,13.58
2023-05-01T05:42:38.880Z,13.52
2023-05-01T05:45:09.407Z,13.75
2023-05-01T05:47:41.018Z,13.45
2023-05-01T05:50:10.768Z,13.85
2023-05-01T05:52:40.182Z,12.24
2023-05-01T05:55:10.187Z,11.72
2023-05-01T05:57:39.291Z,10.55
2023-05-01T06:00:10.922Z,11.42
2023-05-01T06:02:41.613Z,11.82
2023-05-01T06:09:23.383Z,12.20
2023-05-01T06:11:52.793Z,12.60
2023-05-01T06:18:30.511Z,13.03
2023-05-01T06:21:00.418Z,13.05
2023-05-01T06:27:49.002Z,12.87
2023-05-01T06:34:32.260Z,12.98
2023-05-01T06:37:01.731Z,13.00
2023-05-01T06:43:59.232Z,12.68
2023-05-01T06:46:28.762Z,14.18
2023-05-01T06:53:18.125Z,13.66
2023-05-01T07:00:12.848Z,13.69
2023-05-01T07:07:01.418Z,13.55
2023-05-01T07:13:44.364Z,14.23
2023-05-01T07:20:31.717Z,13.85
2023-05-01T07:23:00.698Z,14.27
2023-05-01T07:29:58.233Z,14.66
2023-05-01T07:32:27.822Z,14.41
2023-05-01T07:34:56.686Z,14.36
2023-05-01T07:37:27.225Z,14.29
2023-05-01T07:39:56.724Z,14.55
2023-05-01T07:42:26.627Z,14.98
2023-05-01T07:44:57.562Z,14.93
2023-05-01T07:47:27.784Z,14.67
2023-05-01T07:49:57.665Z,14.76
2023-05-01T07:56:39.115Z,14.71
2023-05-01T07:59:08.513Z,14.56
2023-05-01T08:05:57.772Z,15.15
2023-05-01T08:08:27.511Z,14.79
2023-05-01T08:15:21.405Z,15.06
2023-05-01T08:22:10.704Z,15.99
2023-05-01T08:24:41.412Z,15.54
2023-05-01T08:31:38.232Z,15.57
2023-05-01T08:34:07.688Z,15.40
2023-05-01T08:40:54.444Z,15.94
2023-05-01T08:43:24.555Z,16.10
2023-05-01T08:45:54.687Z,16.07
2023-05-01T08:48:24.306Z,16.53
2023-05-01T08:50:54.224Z,16.18
2023-05-01T08:57:39.283Z,16.62
2023-05-01T09:00:09.818Z,16.48
2023-05-01T09:06:58.692Z,15.92
2023-05-01T09:09:28.189Z,16.41
2023-05-01T09:12:00.254Z,16.29
2023-05-01T09:14:31.393Z,16.19
2023-05-01T09:17:00.994Z,16.14
2023-05-01T09:19:30.718Z,15.88
2023-05-01T09:22:06.666Z,15.64
2023-05-01T09:24:35.748Z,15.96
2023-05-01T09:27:05.065Z,16.18
2023-05-01T09:29:43.266Z,15.95
2023-05-01T09:32:16.819Z,16.30
2023-05-01T09:34:46.695Z,16.39
2023-05-01T09:37:27.552Z,16.53
2023-05-01T09:40:10.263Z,16.86
2023-05-01T09:42:40.486Z,16.99
2023-05-01T09:45:15.822Z,17.20
2023-05-01T09:50:50.872Z,16.84
2023-05-01T09:57:38.739Z,16.99
2023-05-01T10:00:10.386Z,17.35
2023-05-01T10:02:41.586Z,17.56
2023-05-01T10:09:32.682Z,17.33
2023-05-01T10:12:02.276Z,17.75
2023-05-01T10:18:51.546Z,17.76
2023-05-01T10:21:21.073Z,17.94
2023-05-01T10:28:16.297Z,17.17
2023-05-01T10:30:51.352Z,17.64
2023-05-01T10:33:21.450Z,17.56
2023-05-01T10:35:58.337Z,17.80
2023-05-01T10:42:18.639Z,17.86
2023-05-01T10:53:50.350Z,17.49
2023-05-01T10:56:44.538Z,17.54
2023-05-01T11:03:40.784Z,17.43
2023-05-01T11:06:10.496Z,17.76
2023-05-01T11:08:40.817Z,17.93
2023-05-01T11:15:34.928Z,17.82
2023-05-01T11:18:06.217Z,18.39
2023-05-01T11:24:53.948Z,18.06
2023-05-01T11:27:23.834Z,18.23
2023-05-01T11:34:20.616Z,18.62
2023-05-01T11:36:50.321Z,18.13
2023-05-01T11:39:26.281Z,18.45
2023-05-01T11:42:09.246Z,18.61
2023-05-01T11:48:52.021Z,18.83
2023-05-01T11:55:41.525Z,19.25
2023-05-01T11:58:11.655Z,19.75
2023-05-01T12:04:53.077Z,19.57
2023-05-01T12:07:23.478Z,18.71
2023-05-01T12:09:53.086Z,18.69
2023-05-01T12:12:23.607Z,18.42
2023-05-01T12:14:53.623Z,18.53
2023-05-01T12:17:22.913Z,18.67
2023-05-01T12:19:52.570Z,18.98
2023-05-01T12:22:22.133Z,18.90
2023-05-01T12:24:52.985Z,19.24
2023-05-01T12:27:24.111Z,19.30
2023-05-01T12:29:55.254Z,19.54
2023-05-01T12:32:33.844Z,19.84
2023-05-01T12:35:03.473Z,20.10
2023-05-01T12:37:33.810Z,20.40
2023-05-01T12:40:07.729Z,20.54
2023-05-01T12:42:39.047Z,20.77
2023-05-01T12:45:10.087Z,20.06
2023-05-01T12:47:39.752Z,20.26
2023-05-01T12:50:10.424Z,19.54
2023-05-01T12:52:39.623Z,19.79
2023-05-01T12:55:09.843Z,19.47
2023-05-01T12:57:53.178Z,19.66
2023-05-01T13:00:22.986Z,19.35
2023-05-01T13:02:52.325Z,19.35
2023-05-01T13:05:21.785Z,19.62
2023-05-01T13:07:51.630Z,19.85
2023-05-01T13:10:32.879Z,19.64
2023-05-01T13:13:04.530Z,19.53
2023-05-01T13:15:33.417Z,20.16
2023-05-01T13:18:06.725Z,19.97
2023-05-01T13:20:39.202Z,19.77
2023-05-01T13:23:12.876Z,20.04
2023-05-01T13:25:42.396Z,20.76
2023-05-01T13:28:13.429Z,20.46
2023-05-01T13:30:42.936Z,21.13
2023-05-01T13:37:24.054Z,21.63
2023-05-01T13:39:53.396Z,22.01
2023-05-01T13:46:31.374Z,22.46
2023-05-01T13:49:06.190Z,22.60
2023-05-01T13:55:54.148Z,21.96
2023-05-01T13:58:23.649Z,21.63
2023-05-01T14:00:53.188Z,20.79
2023-05-01T14:07:56.281Z,20.94
2023-05-01T14:10:28.330Z,20.61
2023-05-01T14:17:16.028Z,20.62
2023-05-01T14:19:45.369Z,20.81
2023-05-01T14:26:35.847Z,20.15
2023-05-01T14:29:07.763Z,20.16
2023-05-01T14:31:36.936Z,19.67
2023-05-01T14:34:07.904Z,19.03
2023-05-01T14:36:37.503Z,19.48
2023-05-01T14:39:06.600Z,19.98
2023-05-01T14:41:39.170Z,20.30
2023-05-01T14:44:08.980Z,20.02
2023-05-01T14:46:43.757Z,19.94
2023-05-01T14:49:14.550Z,20.25
2023-05-01T14:51:43.959Z,20.30
2023-05-01T14:54:13.056Z,20.04
2023-05-01T14:56:44.300Z,20.12
2023-05-01T14:59:13.602Z,19.78
2023-05-01T15:01:44.300Z,20.13
2023-05-01T15:08:33.626Z,19.96
2023-05-01T15:11:02.829Z,20.12
2023-05-01T15:17:52.374Z,20.40
2023-05-01T15:20:21.930Z,20.48
2023-05-01T15:27:10.296Z,19.97
2023-05-01T15:34:09.317Z,19.68
2023-05-01T15:36:38.822Z,19.59
2023-05-01T15:43:21.468Z,19.36
2023-05-01T15:45:50.777Z,19.36
2023-05-01T15:52:43.610Z,19.65
2023-05-01T15:55:16.309Z,19.61
2023-05-01T15:57:47.758Z,18.77
2023-05-01T16:00:17.571Z,18.94
2023-05-01T16:02:46.752Z,19.34
2023-05-01T16:05:19.138Z,19.24
2023-05-01T16:07:51.807Z,19.38
2023-05-01T16:10:21.212Z,19.47
2023-05-01T16:12:51.532Z,19.38
2023-05-01T16:15:22.466Z,19.51
2023-05-01T16:17:52.162Z,19.11
2023-05-01T16:20:22.179Z,19.17
2023-05-01T16:22:52.631Z,18.88
2023-05-01T16:25:22.130Z,19.11
2023-05-01T16:27:51.209Z,19.23
2023-05-01T16:34:32.410Z,19.31
2023-05-01T16:37:01.920Z,19.38
2023-05-01T16:43:51.008Z,18.74
2023-05-01T16:46:20.328Z,18.38
2023-05-01T16:53:08.573Z,18.37
2023-05-01T17:00:04.808Z,17.92
2023-05-01T17:02:34.952Z,17.78
2023-05-01T17:09:16.348Z,17.48
2023-05-01T17:11:47.471Z,17.40
2023-05-01T17:17:43.369Z,17.46
2023-05-01T17:24:31.085Z,16.89
2023-05-01T17:27:00.291Z,16.78
2023-05-01T17:29:29.771Z,16.80
2023-05-01T17:31:59.017Z,16.61
2023-05-01T17:34:29.825Z,16.46
2023-05-01T17:36:59.631Z,16.36
2023-05-01T17:39:28.827Z,16.03
2023-05-01T17:41:57.706Z,16.08
2023-05-01T17:44:26.710Z,15.87
2023-05-01T17:46:55.802Z,15.58
2023-05-01T17:49:24.898Z,15.40
2023-05-01T17:51:55.642Z,15.26
2023-05-01T17:54:24.828Z,15.01
2023-05-01T17:56:54.125Z,14.88
2023-05-01T17:59:23.018Z,14.67
2023-05-01T18:01:54.997Z,14.57
2023-05-01T18:04:27.398Z,14.38
2023-05-01T18:11:04.457Z,13.96
2023-05-01T18:13:38.467Z,13.82
2023-05-01T18:20:26.315Z,13.39
2023-05-01T18:22:59.104Z,13.31
2023-05-01T18:29:43.269Z,12.91
2023-05-01T18:36:30.418Z,12.58
2023-05-01T18:38:59.405Z,12.44
2023-05-01T18:45:54.047Z,12.33
2023-05-01T18:48:23.325Z,12.18
2023-05-01T18:51:07.127Z,11.90
2023-05-01T18:53:37.484Z,11.66
2023-05-01T19:00:20.638Z,11.72
2023-05-01T19:07:15.658Z,11.66
2023-05-01T19:09:44.854Z,11.62
2023-05-01T19:16:26.524Z,11.25
2023-05-01T19:18:56.072Z,11.13
2023-05-01T19:21:25.471Z,11.06
2023-05-01T19:23:56.813Z,11.26
2023-05-01T19:26:26.117Z,11.21
2023-05-01T19:28:56.439Z,11.14
2023-05-01T19:31:26.040Z,11.14
2023-05-01T19:33:55.656Z,11.16
2023-05-01T19:36:24.844Z,10.89
2023-05-01T19:38:55.294Z,10.77
2023-05-01T19:41:24.672Z,10.76
2023-05-01T19:43:53.768Z,10.75
2023-05-01T19:46:22.956Z,10.66
2023-05-01T19:48:52.777Z,10.69
2023-05-01T19:51:21.772Z,10.59
2023-05-01T19:58:11.061Z,10.37
2023-05-01T20:00:40.358Z,10.42
2023-05-01T20:07:28.642Z,10.18
2023-05-01T20:09:58.017Z,10.07
2023-05-01T20:16:49.408Z,9.85
2023-05-01T20:23:31.195Z,9.74
2023-05-01T20:26:00.279Z,9.77
2023-05-01T20:32:42.659Z,9.51
2023-05-01T20:35:12.829Z,9.52
2023-05-01T20:42:01.323Z,9.41
2023-05-01T20:44:30.499Z,9.30
2023-05-01T20:46:59.795Z,9.25
2023-05-01T20:53:49.586Z,9.50
2023-05-01T20:56:18.591Z,9.48
2023-05-01T21:03:06.853Z,9.14
2023-05-01T21:05:36.448Z,9.16
2023-05-01T21:08:05.666Z,9.06
2023-05-01T21:10:37.010Z,9.01
2023-05-01T21:13:06.413Z,9.02
2023-05-01T21:15:35.420Z,9.08
2023-05-01T21:18:04.738Z,8.95
2023-05-01T21:20:36.155Z,8.92
2023-05-01T21:23:05.448Z,8.93
2023-05-01T21:25:36.391Z,8.90
2023-05-01T21:28:06.924Z,8.97
2023-05-01T21:30:37.572Z,8.96
2023-05-01T21:33:08.416Z,9.11
2023-05-01T21:39:59.944Z,8.92
2023-05-01T21:42:33.121Z,9.00
2023-05-01T21:53:45.797Z,9.20
2023-05-01T21:56:16.309Z,9.19
2023-05-01T21:58:47.131Z,9.24
2023-05-01T22:01:18.464Z,9.34
2023-05-01T22:03:50.150Z,9.35
2023-05-01T22:06:19.800Z,9.49
2023-05-01T22:08:49.148Z,9.50
2023-05-01T22:11:18.251Z,9.46
2023-05-01T22:13:48.672Z,9.63
2023-05-01T22:20:24.342Z,10.30
2023-05-01T22:22:54.976Z,10.25
2023-05-01T22:29:50.715Z,9.65
2023-05-01T22:32:20.266Z,9.58
2023-05-01T22:38:01.506Z,10.02
2023-05-01T22:44:37.704Z,10.19
2023-05-01T22:47:08.541Z,10.14
2023-05-01T22:49:37.435Z,9.97
2023-05-01T22:52:06.632Z,9.79
2023-05-01T22:54:36.232Z,9.72
2023-05-01T23:01:17.238Z,10.72
2023-05-01T23:03:48.310Z,10.48
2023-05-01T23:10:36.432Z,10.28
2023-05-01T23:13:05.530Z,10.43
2023-05-01T23:15:35.675Z,10.65
2023-05-01T23:18:05.273Z,10.88
2023-05-01T23:20:40.282Z,11.02
2023-05-01T23:23:14.099Z,11.19
2023-05-01T23:25:47.588Z,11.22
2023-05-01T23:28:22.636Z,11.29
2023-05-01T23:35:07.916Z,11.23
2023-05-01T23:42:00.697Z,11.26
2023-05-01T23:44:30.095Z,11.22
2023-05-01T23:56:01.400Z,11.19
2023-05-01T23:58:32.128Z,11.09
